sensor_id;sensor_type;location;lat;lon;timestamp;temperature;humidity
10276;DHT22;5183;51.190;6.820;2023-02-13T00:01:22;9.10;99.90
10276;DHT22;5183;51.190;6.820;2023-02-13T00:03:51;9.10;99.90
10276;DHT22;5183;51.190;6.820;2023-02-13T00:06:17;9.10;1.00
10276;DHT22;5183;51.190;6.820;2023-02-13T00:08:44;9.10;35.40
10276;DHT22;5183;51.190;6.820;2023-02-13T00:11:11;9.10;99.90
10276;DHT22;5183;51.190;6.820;2023-02-13T00:13:38;9.10;99.90
10276;DHT22;5183;51.190;6.820;2023-02-13T00:16:05;9.00;99.90
10276;DHT22;5183;51.190;6.820;2023-02-13T00:18:34;9.00;99.90
10276;DHT22;5183;51.190;6.820;2023-02-13T00:21:04;9.00;1.00
10276;DHT22;5183;51.190;6.820;2023-02-13T00:23:32;9.10;1.00
10276;DHT22;5183;51.190;6.820;2023-02-13T00:26:00;9.00;1.00
10276;DHT22;5183;51.190;6.820;2023-02-13T00:28:27;8.90;1.00
10276;DHT22;5183;51.190;6.820;2023-02-13T00:31:01;9.00;1.00
10276;DHT22;5183;51.190;6.820;2023-02-13T00:33:28;9.00;1.00
10276;DHT22;5183;51.190;6.820;2023-02-13T00:36:03;8.90;1.00
10276;DHT22;5183;51.190;6.820;2023-02-13T00:38:31;8.90;99.90
10276;DHT22;5183;51.190;6.820;2023-02-13T00:40:57;8.90;99.90
10276;DHT22;5183;51.190;6.820;2023-02-13T00:43:24;8.90;1.00
10276;DHT22;5183;51.190;6.820;2023-02-13T00:45:51;8.90;1.00
10276;DHT22;5183;51.190;6.820;2023-02-13T00:48:18;8.90;55.30
10276;DHT22;5183;51.190;6.820;2023-02-13T00:50:45;8.90;12.50
10276;DHT22;5183;51.190;6.820;2023-02-13T00:53:13;8.90;99.90
10276;DHT22;5183;51.190;6.820;2023-02-13T00:55:40;8.90;99.90
10276;DHT22;5183;51.190;6.820;2023-02-13T00:58:07;8.80;1.00
10276;DHT22;5183;51.190;6.820;2023-02-13T01:00:34;8.80;1.00
10276;DHT22;5183;51.190;6.820;2023-02-13T01:03:01;8.80;1.00
10276;DHT22;5183;51.190;6.820;2023-02-13T01:05:28;8.80;1.00
10276;DHT22;5183;51.190;6.820;2023-02-13T01:07:55;8.90;1.00
10276;DHT22;5183;51.190;6.820;2023-02-13T01:10:24;8.90;1.00
10276;DHT22;5183;51.190;6.820;2023-02-13T01:12:51;8.90;99.90
10276;DHT22;5183;51.190;6.820;2023-02-13T01:15:18;8.80;1.00
10276;DHT22;5183;51.190;6.820;2023-02-13T01:17:45;8.80;1.00
10276;DHT22;5183;51.190;6.820;2023-02-13T01:20:12;8.80;1.00
10276;DHT22;5183;51.190;6.820;2023-02-13T01:22:40;8.90;99.90
10276;DHT22;5183;51.190;6.820;2023-02-13T01:25:09;8.80;1.00
10276;DHT22;5183;51.190;6.820;2023-02-13T01:27:37;8.80;1.00
10276;DHT22;5183;51.190;6.820;2023-02-13T01:30:05;8.80;1.00
10276;DHT22;5183;51.190;6.820;2023-02-13T01:32:35;8.80;99.90
10276;DHT22;5183;51.190;6.820;2023-02-13T01:35:01;8.70;1.00
10276;DHT22;5183;51.190;6.820;2023-02-13T01:37:28;8.70;1.00
10276;DHT22;5183;51.190;6.820;2023-02-13T01:39:55;8.60;1.00
10276;DHT22;5183;51.190;6.820;2023-02-13T01:42:26;8.70;1.00
10276;DHT22;5183;51.190;6.820;2023-02-13T01:44:56;8.80;1.00
10276;DHT22;5183;51.190;6.820;2023-02-13T01:47:26;8.70;1.00
10276;DHT22;5183;51.190;6.820;2023-02-13T01:50:07;8.70;99.90
10276;DHT22;5183;51.190;6.820;2023-02-13T01:52:38;8.70;99.90
10276;DHT22;5183;51.190;6.820;2023-02-13T01:55:06;8.60;1.00
10276;DHT22;5183;51.190;6.820;2023-02-13T01:57:36;8.70;1.00
10276;DHT22;5183;51.190;6.820;2023-02-13T02:00:07;8.60;99.90
10276;DHT22;5183;51.190;6.820;2023-02-13T02:02:38;8.60;99.90
10276;DHT22;5183;51.190;6.820;2023-02-13T02:05:08;8.60;99.90
10276;DHT22;5183;51.190;6.820;2023-02-13T02:07:36;8.60;99.90
10276;DHT22;5183;51.190;6.820;2023-02-13T02:10:08;8.60;99.90
10276;DHT22;5183;51.190;6.820;2023-02-13T02:12:40;8.70;1.00
10276;DHT22;5183;51.190;6.820;2023-02-13T02:15:09;8.70;99.90
10276;DHT22;5183;51.190;6.820;2023-02-13T02:17:36;8.60;99.90
10276;DHT22;5183;51.190;6.820;2023-02-13T02:20:13;8.60;99.90
10276;DHT22;5183;51.190;6.820;2023-02-13T02:23:14;8.60;1.00
10276;DHT22;5183;51.190;6.820;2023-02-13T02:26:20;8.60;99.90
10276;DHT22;5183;51.190;6.820;2023-02-13T02:32:07;8.60;99.90
10276;DHT22;5183;51.190;6.820;2023-02-13T02:34:40;8.60;99.90
10276;DHT22;5183;51.190;6.820;2023-02-13T02:37:21;8.60;99.90
10276;DHT22;5183;51.190;6.820;2023-02-13T02:39:58;8.50;99.90
10276;DHT22;5183;51.190;6.820;2023-02-13T02:42:33;8.50;99.90
10276;DHT22;5183;51.190;6.820;2023-02-13T02:45:07;8.50;1.00
10276;DHT22;5183;51.190;6.820;2023-02-13T02:47:43;8.50;99.90
10276;DHT22;5183;51.190;6.820;2023-02-13T02:50:34;8.50;99.90
10276;DHT22;5183;51.190;6.820;2023-02-13T02:53:07;8.50;1.00
10276;DHT22;5183;51.190;6.820;2023-02-13T02:55:44;8.50;1.00
10276;DHT22;5183;51.190;6.820;2023-02-13T02:58:18;8.50;1.00
10276;DHT22;5183;51.190;6.820;2023-02-13T03:01:06;8.50;1.00
10276;DHT22;5183;51.190;6.820;2023-02-13T03:03:55;8.50;1.00
10276;DHT22;5183;51.190;6.820;2023-02-13T03:06:45;8.50;1.00
10276;DHT22;5183;51.190;6.820;2023-02-13T03:09:17;8.50;99.90
10276;DHT22;5183;51.190;6.820;2023-02-13T03:12:02;8.40;1.00
10276;DHT22;5183;51.190;6.820;2023-02-13T03:14:58;8.40;99.90
10276;DHT22;5183;51.190;6.820;2023-02-13T03:17:26;8.40;99.90
10276;DHT22;5183;51.190;6.820;2023-02-13T03:20:22;8.40;99.90
10276;DHT22;5183;51.190;6.820;2023-02-13T03:23:12;8.40;99.90
10276;DHT22;5183;51.190;6.820;2023-02-13T03:25:57;8.40;99.90
10276;DHT22;5183;51.190;6.820;2023-02-13T03:28:34;8.40;99.90
10276;DHT22;5183;51.190;6.820;2023-02-13T03:31:27;8.50;99.90
10276;DHT22;5183;51.190;6.820;2023-02-13T03:34:00;8.40;3.90
10276;DHT22;5183;51.190;6.820;2023-02-13T03:36:43;8.40;99.90
10276;DHT22;5183;51.190;6.820;2023-02-13T03:39:39;8.40;99.90
10276;DHT22;5183;51.190;6.820;2023-02-13T03:42:14;8.40;99.90
10276;DHT22;5183;51.190;6.820;2023-02-13T03:44:47;8.30;1.00
10276;DHT22;5183;51.190;6.820;2023-02-13T03:47:36;8.30;1.00
10276;DHT22;5183;51.190;6.820;2023-02-13T03:50:05;8.30;1.00
10276;DHT22;5183;51.190;6.820;2023-02-13T03:52:38;8.40;99.90
10276;DHT22;5183;51.190;6.820;2023-02-13T03:55:09;8.30;1.00
10276;DHT22;5183;51.190;6.820;2023-02-13T03:57:59;8.30;1.00
10276;DHT22;5183;51.190;6.820;2023-02-13T04:00:46;8.30;1.00
10276;DHT22;5183;51.190;6.820;2023-02-13T04:03:19;8.30;1.00
10276;DHT22;5183;51.190;6.820;2023-02-13T04:05:51;8.30;1.00
10276;DHT22;5183;51.190;6.820;2023-02-13T04:08:21;8.30;1.00
10276;DHT22;5183;51.190;6.820;2023-02-13T04:10:51;8.20;1.00
10276;DHT22;5183;51.190;6.820;2023-02-13T04:13:23;8.30;1.00
10276;DHT22;5183;51.190;6.820;2023-02-13T04:15:55;8.20;1.00
10276;DHT22;5183;51.190;6.820;2023-02-13T04:18:24;8.20;1.00
10276;DHT22;5183;51.190;6.820;2023-02-13T04:20:52;8.20;1.00
10276;DHT22;5183;51.190;6.820;2023-02-13T04:23:20;8.20;1.00
10276;DHT22;5183;51.190;6.820;2023-02-13T04:25:50;8.20;85.60
10276;DHT22;5183;51.190;6.820;2023-02-13T04:28:17;8.20;1.00
10276;DHT22;5183;51.190;6.820;2023-02-13T04:30:44;8.20;1.00
10276;DHT22;5183;51.190;6.820;2023-02-13T04:33:11;8.20;1.00
10276;DHT22;5183;51.190;6.820;2023-02-13T04:35:38;8.20;1.00
10276;DHT22;5183;51.190;6.820;2023-02-13T04:38:05;8.20;1.00
10276;DHT22;5183;51.190;6.820;2023-02-13T04:40:33;8.10;1.00
10276;DHT22;5183;51.190;6.820;2023-02-13T04:43:00;8.10;91.50
10276;DHT22;5183;51.190;6.820;2023-02-13T04:45:27;8.10;99.90
10276;DHT22;5183;51.190;6.820;2023-02-13T04:47:54;8.10;99.90
10276;DHT22;5183;51.190;6.820;2023-02-13T04:50:22;8.00;99.90
10276;DHT22;5183;51.190;6.820;2023-02-13T04:52:52;8.00;99.90
10276;DHT22;5183;51.190;6.820;2023-02-13T04:55:19;8.00;99.90
10276;DHT22;5183;51.190;6.820;2023-02-13T04:57:50;7.90;99.90
10276;DHT22;5183;51.190;6.820;2023-02-13T05:00:18;7.90;99.90
10276;DHT22;5183;51.190;6.820;2023-02-13T05:02:45;7.80;1.00
10276;DHT22;5183;51.190;6.820;2023-02-13T05:05:11;7.80;99.90
10276;DHT22;5183;51.190;6.820;2023-02-13T05:07:38;7.80;1.00
10276;DHT22;5183;51.190;6.820;2023-02-13T05:10:07;7.70;1.00
10276;DHT22;5183;51.190;6.820;2023-02-13T05:12:34;7.60;1.00
10276;DHT22;5183;51.190;6.820;2023-02-13T05:15:02;7.60;25.70
10276;DHT22;5183;51.190;6.820;2023-02-13T05:17:29;7.60;99.90
10276;DHT22;5183;51.190;6.820;2023-02-13T05:19:55;7.50;99.90
10276;DHT22;5183;51.190;6.820;2023-02-13T05:22:23;7.50;99.90
10276;DHT22;5183;51.190;6.820;2023-02-13T05:25:13;7.40;99.90
10276;DHT22;5183;51.190;6.820;2023-02-13T05:27:40;7.40;99.90
10276;DHT22;5183;51.190;6.820;2023-02-13T05:30:09;7.40;99.90
10276;DHT22;5183;51.190;6.820;2023-02-13T05:32:35;7.30;99.90
10276;DHT22;5183;51.190;6.820;2023-02-13T05:35:02;7.30;99.90
10276;DHT22;5183;51.190;6.820;2023-02-13T05:37:29;7.30;99.90
10276;DHT22;5183;51.190;6.820;2023-02-13T05:39:56;7.30;99.90
10276;DHT22;5183;51.190;6.820;2023-02-13T05:42:23;7.10;99.90
10276;DHT22;5183;51.190;6.820;2023-02-13T05:44:49;7.20;99.90
10276;DHT22;5183;51.190;6.820;2023-02-13T05:47:18;7.10;99.90
10276;DHT22;5183;51.190;6.820;2023-02-13T05:49:44;7.10;99.90
10276;DHT22;5183;51.190;6.820;2023-02-13T05:52:11;7.10;99.90
10276;DHT22;5183;51.190;6.820;2023-02-13T05:54:38;7.00;99.90
10276;DHT22;5183;51.190;6.820;2023-02-13T05:57:05;7.00;99.90
10276;DHT22;5183;51.190;6.820;2023-02-13T05:59:32;7.00;1.00
10276;DHT22;5183;51.190;6.820;2023-02-13T06:01:58;6.90;1.00
10276;DHT22;5183;51.190;6.820;2023-02-13T06:04:26;6.80;1.00
10276;DHT22;5183;51.190;6.820;2023-02-13T06:06:53;6.90;1.00
10276;DHT22;5183;51.190;6.820;2023-02-13T06:09:20;6.90;1.00
10276;DHT22;5183;51.190;6.820;2023-02-13T06:11:47;6.90;1.00
10276;DHT22;5183;51.190;6.820;2023-02-13T06:14:14;6.80;1.00
10276;DHT22;5183;51.190;6.820;2023-02-13T06:16:41;6.80;1.00
10276;DHT22;5183;51.190;6.820;2023-02-13T06:19:08;6.70;1.00
10276;DHT22;5183;51.190;6.820;2023-02-13T06:21:36;6.70;1.00
10276;DHT22;5183;51.190;6.820;2023-02-13T06:24:04;6.70;1.00
10276;DHT22;5183;51.190;6.820;2023-02-13T06:26:31;6.60;1.00
10276;DHT22;5183;51.190;6.820;2023-02-13T06:28:58;6.60;1.00
10276;DHT22;5183;51.190;6.820;2023-02-13T06:31:24;6.70;1.00
10276;DHT22;5183;51.190;6.820;2023-02-13T06:33:51;6.70;1.00
10276;DHT22;5183;51.190;6.820;2023-02-13T06:36:18;6.60;1.00
10276;DHT22;5183;51.190;6.820;2023-02-13T06:38:46;6.70;1.00
10276;DHT22;5183;51.190;6.820;2023-02-13T06:41:13;6.60;1.00
10276;DHT22;5183;51.190;6.820;2023-02-13T06:43:40;6.60;1.00
10276;DHT22;5183;51.190;6.820;2023-02-13T06:46:07;6.60;1.00
10276;DHT22;5183;51.190;6.820;2023-02-13T06:48:34;6.60;1.00
10276;DHT22;5183;51.190;6.820;2023-02-13T06:51:01;6.50;1.00
10276;DHT22;5183;51.190;6.820;2023-02-13T06:53:28;6.50;1.00
10276;DHT22;5183;51.190;6.820;2023-02-13T06:55:56;6.50;1.00
10276;DHT22;5183;51.190;6.820;2023-02-13T06:58:24;6.50;1.00
10276;DHT22;5183;51.190;6.820;2023-02-13T07:00:51;6.50;1.00
10276;DHT22;5183;51.190;6.820;2023-02-13T07:03:18;6.40;1.00
10276;DHT22;5183;51.190;6.820;2023-02-13T07:05:45;6.40;1.00
10276;DHT22;5183;51.190;6.820;2023-02-13T07:08:12;6.50;1.00
10276;DHT22;5183;51.190;6.820;2023-02-13T07:10:40;6.40;1.00
10276;DHT22;5183;51.190;6.820;2023-02-13T07:13:09;6.40;1.00
10276;DHT22;5183;51.190;6.820;2023-02-13T07:15:36;6.40;1.00
10276;DHT22;5183;51.190;6.820;2023-02-13T07:18:04;6.40;1.00
10276;DHT22;5183;51.190;6.820;2023-02-13T07:20:31;6.40;1.00
10276;DHT22;5183;51.190;6.820;2023-02-13T07:22:58;6.50;1.00
10276;DHT22;5183;51.190;6.820;2023-02-13T07:25:26;6.50;1.00
10276;DHT22;5183;51.190;6.820;2023-02-13T07:27:52;6.50;1.00
10276;DHT22;5183;51.190;6.820;2023-02-13T07:30:21;6.50;1.00
10276;DHT22;5183;51.190;6.820;2023-02-13T07:32:48;6.50;1.00
10276;DHT22;5183;51.190;6.820;2023-02-13T07:35:16;6.50;1.00
10276;DHT22;5183;51.190;6.820;2023-02-13T07:37:42;6.50;1.00
10276;DHT22;5183;51.190;6.820;2023-02-13T07:40:10;6.60;1.00
10276;DHT22;5183;51.190;6.820;2023-02-13T07:42:37;6.60;1.00
10276;DHT22;5183;51.190;6.820;2023-02-13T07:45:04;6.60;1.00
10276;DHT22;5183;51.190;6.820;2023-02-13T07:47:33;6.60;1.00
10276;DHT22;5183;51.190;6.820;2023-02-13T07:50:00;6.60;1.00
10276;DHT22;5183;51.190;6.820;2023-02-13T07:52:27;6.60;1.00
10276;DHT22;5183;51.190;6.820;2023-02-13T07:54:54;6.60;1.00
10276;DHT22;5183;51.190;6.820;2023-02-13T07:57:21;6.60;1.00
10276;DHT22;5183;51.190;6.820;2023-02-13T07:59:47;6.70;1.00
10276;DHT22;5183;51.190;6.820;2023-02-13T08:02:15;6.70;1.00
10276;DHT22;5183;51.190;6.820;2023-02-13T08:04:43;6.70;1.00
10276;DHT22;5183;51.190;6.820;2023-02-13T08:07:11;6.70;1.00
10276;DHT22;5183;51.190;6.820;2023-02-13T08:09:38;6.80;1.00
10276;DHT22;5183;51.190;6.820;2023-02-13T08:12:23;6.80;99.90
10276;DHT22;5183;51.190;6.820;2023-02-13T08:14:50;6.90;99.90
10276;DHT22;5183;51.190;6.820;2023-02-13T08:17:18;6.90;99.90
10276;DHT22;5183;51.190;6.820;2023-02-13T08:19:46;6.90;99.90
10276;DHT22;5183;51.190;6.820;2023-02-13T08:22:13;6.90;99.90
10276;DHT22;5183;51.190;6.820;2023-02-13T08:24:40;6.90;99.90
10276;DHT22;5183;51.190;6.820;2023-02-13T08:27:10;6.90;99.90
10276;DHT22;5183;51.190;6.820;2023-02-13T08:29:37;7.00;99.90
10276;DHT22;5183;51.190;6.820;2023-02-13T08:32:04;7.00;99.90
10276;DHT22;5183;51.190;6.820;2023-02-13T08:34:31;7.00;97.30
10276;DHT22;5183;51.190;6.820;2023-02-13T08:37:00;7.10;16.30
10276;DHT22;5183;51.190;6.820;2023-02-13T08:39:27;7.10;1.00
10276;DHT22;5183;51.190;6.820;2023-02-13T08:41:54;7.10;1.00
10276;DHT22;5183;51.190;6.820;2023-02-13T08:44:20;7.10;1.00
10276;DHT22;5183;51.190;6.820;2023-02-13T08:46:47;7.10;1.00
10276;DHT22;5183;51.190;6.820;2023-02-13T08:49:14;7.20;1.00
10276;DHT22;5183;51.190;6.820;2023-02-13T08:51:41;7.20;1.00
10276;DHT22;5183;51.190;6.820;2023-02-13T08:54:09;7.30;99.90
10276;DHT22;5183;51.190;6.820;2023-02-13T08:56:36;7.40;99.90
10276;DHT22;5183;51.190;6.820;2023-02-13T08:59:03;7.40;99.90
10276;DHT22;5183;51.190;6.820;2023-02-13T09:01:29;7.50;1.00
10276;DHT22;5183;51.190;6.820;2023-02-13T09:03:56;7.50;1.00
10276;DHT22;5183;51.190;6.820;2023-02-13T09:06:23;7.50;1.00
10276;DHT22;5183;51.190;6.820;2023-02-13T09:08:50;7.50;1.00
10276;DHT22;5183;51.190;6.820;2023-02-13T09:11:19;7.60;1.00
10276;DHT22;5183;51.190;6.820;2023-02-13T09:13:48;7.70;9.60
10276;DHT22;5183;51.190;6.820;2023-02-13T09:16:15;7.60;1.00
10276;DHT22;5183;51.190;6.820;2023-02-13T09:18:42;7.60;1.00
10276;DHT22;5183;51.190;6.820;2023-02-13T09:21:10;7.70;99.90
10276;DHT22;5183;51.190;6.820;2023-02-13T09:23:38;7.60;1.00
10276;DHT22;5183;51.190;6.820;2023-02-13T09:26:08;7.70;1.00
10276;DHT22;5183;51.190;6.820;2023-02-13T09:28:37;7.70;99.90
10276;DHT22;5183;51.190;6.820;2023-02-13T09:31:04;7.80;99.90
10276;DHT22;5183;51.190;6.820;2023-02-13T09:33:31;7.80;99.90
10276;DHT22;5183;51.190;6.820;2023-02-13T09:36:03;7.80;1.00
10276;DHT22;5183;51.190;6.820;2023-02-13T09:38:30;7.90;99.90
10276;DHT22;5183;51.190;6.820;2023-02-13T09:40:59;8.00;99.90
10276;DHT22;5183;51.190;6.820;2023-02-13T09:43:29;8.00;1.00
10276;DHT22;5183;51.190;6.820;2023-02-13T09:46:00;8.10;1.00
10276;DHT22;5183;51.190;6.820;2023-02-13T09:48:32;8.00;99.90
10276;DHT22;5183;51.190;6.820;2023-02-13T09:51:00;8.10;1.00
10276;DHT22;5183;51.190;6.820;2023-02-13T09:53:28;8.10;99.90
10276;DHT22;5183;51.190;6.820;2023-02-13T09:56:04;8.20;99.90
10276;DHT22;5183;51.190;6.820;2023-02-13T09:58:40;8.30;1.00
10276;DHT22;5183;51.190;6.820;2023-02-13T10:01:19;8.30;1.00
10276;DHT22;5183;51.190;6.820;2023-02-13T10:04:07;8.40;1.00
10276;DHT22;5183;51.190;6.820;2023-02-13T10:06:39;8.40;1.00
10276;DHT22;5183;51.190;6.820;2023-02-13T10:09:20;8.40;1.00
10276;DHT22;5183;51.190;6.820;2023-02-13T10:12:08;8.50;1.00
10276;DHT22;5183;51.190;6.820;2023-02-13T10:14:44;8.50;1.00
10276;DHT22;5183;51.190;6.820;2023-02-13T10:17:17;8.60;99.90
10276;DHT22;5183;51.190;6.820;2023-02-13T10:19:47;8.60;99.90
10276;DHT22;5183;51.190;6.820;2023-02-13T10:22:17;8.80;1.00
10276;DHT22;5183;51.190;6.820;2023-02-13T10:24:47;8.80;99.90
10276;DHT22;5183;51.190;6.820;2023-02-13T10:27:21;8.90;99.90
10276;DHT22;5183;51.190;6.820;2023-02-13T10:29:52;8.90;99.90
10276;DHT22;5183;51.190;6.820;2023-02-13T10:32:48;8.90;99.90
10276;DHT22;5183;51.190;6.820;2023-02-13T10:35:21;8.90;99.90
10276;DHT22;5183;51.190;6.820;2023-02-13T10:37:54;9.00;1.00
10276;DHT22;5183;51.190;6.820;2023-02-13T10:40:26;9.10;1.00
10276;DHT22;5183;51.190;6.820;2023-02-13T10:42:58;9.20;99.90
10276;DHT22;5183;51.190;6.820;2023-02-13T10:45:39;9.20;99.90
10276;DHT22;5183;51.190;6.820;2023-02-13T10:48:23;9.20;93.30
10276;DHT22;5183;51.190;6.820;2023-02-13T10:51:01;9.20;99.90
10276;DHT22;5183;51.190;6.820;2023-02-13T10:53:39;9.20;1.00
10276;DHT22;5183;51.190;6.820;2023-02-13T10:56:21;9.20;1.00
10276;DHT22;5183;51.190;6.820;2023-02-13T10:58:57;9.30;99.90
10276;DHT22;5183;51.190;6.820;2023-02-13T11:01:31;9.30;53.20
10276;DHT22;5183;51.190;6.820;2023-02-13T11:04:06;9.40;1.00
10276;DHT22;5183;51.190;6.820;2023-02-13T11:06:35;9.40;1.00
10276;DHT22;5183;51.190;6.820;2023-02-13T11:09:04;9.50;1.00
10276;DHT22;5183;51.190;6.820;2023-02-13T11:11:34;9.40;43.50
10276;DHT22;5183;51.190;6.820;2023-02-13T11:14:13;9.40;1.00
10276;DHT22;5183;51.190;6.820;2023-02-13T11:16:46;9.60;1.00
10276;DHT22;5183;51.190;6.820;2023-02-13T11:19:21;9.70;1.00
10276;DHT22;5183;51.190;6.820;2023-02-13T11:21:54;9.80;7.00
10276;DHT22;5183;51.190;6.820;2023-02-13T11:24:23;9.90;1.00
10276;DHT22;5183;51.190;6.820;2023-02-13T11:26:52;10.00;32.00
10276;DHT22;5183;51.190;6.820;2023-02-13T11:29:23;10.10;1.00
10276;DHT22;5183;51.190;6.820;2023-02-13T11:32:03;10.20;1.00
10276;DHT22;5183;51.190;6.820;2023-02-13T11:34:33;10.20;1.00
10276;DHT22;5183;51.190;6.820;2023-02-13T11:37:18;10.30;1.00
10276;DHT22;5183;51.190;6.820;2023-02-13T11:39:47;10.40;99.90
10276;DHT22;5183;51.190;6.820;2023-02-13T11:42:16;10.50;1.00
10276;DHT22;5183;51.190;6.820;2023-02-13T11:44:48;10.60;99.90
10276;DHT22;5183;51.190;6.820;2023-02-13T11:47:16;10.70;99.90
10276;DHT22;5183;51.190;6.820;2023-02-13T11:49:56;10.80;1.00
10276;DHT22;5183;51.190;6.820;2023-02-13T11:52:27;10.90;99.90
10276;DHT22;5183;51.190;6.820;2023-02-13T11:54:58;11.00;1.00
10276;DHT22;5183;51.190;6.820;2023-02-13T11:57:30;11.10;1.00
10276;DHT22;5183;51.190;6.820;2023-02-13T11:59:58;11.20;94.80
10276;DHT22;5183;51.190;6.820;2023-02-13T12:02:27;11.30;1.00
10276;DHT22;5183;51.190;6.820;2023-02-13T12:05:15;11.40;1.00
10276;DHT22;5183;51.190;6.820;2023-02-13T12:07:43;11.50;99.90
10276;DHT22;5183;51.190;6.820;2023-02-13T12:10:19;11.60;99.90
10276;DHT22;5183;51.190;6.820;2023-02-13T12:12:53;11.80;99.90
10276;DHT22;5183;51.190;6.820;2023-02-13T12:15:22;11.90;1.00
10276;DHT22;5183;51.190;6.820;2023-02-13T12:18:02;12.00;99.90
10276;DHT22;5183;51.190;6.820;2023-02-13T12:20:42;12.10;1.00
10276;DHT22;5183;51.190;6.820;2023-02-13T12:23:20;12.30;1.00
10276;DHT22;5183;51.190;6.820;2023-02-13T12:26:13;12.40;1.00
10276;DHT22;5183;51.190;6.820;2023-02-13T12:29:02;12.50;99.90
10276;DHT22;5183;51.190;6.820;2023-02-13T12:31:50;12.60;99.90
10276;DHT22;5183;51.190;6.820;2023-02-13T12:34:58;12.70;99.90
10276;DHT22;5183;51.190;6.820;2023-02-13T12:37:50;12.80;99.90
10276;DHT22;5183;51.190;6.820;2023-02-13T12:40:35;12.90;99.90
10276;DHT22;5183;51.190;6.820;2023-02-13T12:43:20;13.00;99.90
10276;DHT22;5183;51.190;6.820;2023-02-13T12:45:55;13.20;99.90
10276;DHT22;5183;51.190;6.820;2023-02-13T12:48:36;13.40;20.10
10276;DHT22;5183;51.190;6.820;2023-02-13T12:51:24;13.40;62.30
10276;DHT22;5183;51.190;6.820;2023-02-13T12:54:06;13.50;1.00
10276;DHT22;5183;51.190;6.820;2023-02-13T12:56:45;13.70;1.00
10276;DHT22;5183;51.190;6.820;2023-02-13T12:59:19;13.80;1.00
10276;DHT22;5183;51.190;6.820;2023-02-13T13:04:49;14.10;1.00
10276;DHT22;5183;51.190;6.820;2023-02-13T13:07:31;14.10;1.00
10276;DHT22;5183;51.190;6.820;2023-02-13T13:10:23;14.20;1.00
10276;DHT22;5183;51.190;6.820;2023-02-13T13:12:59;14.30;1.00
10276;DHT22;5183;51.190;6.820;2023-02-13T13:15:33;14.40;1.00
10276;DHT22;5183;51.190;6.820;2023-02-13T13:18:14;14.40;1.00
10276;DHT22;5183;51.190;6.820;2023-02-13T13:20:53;14.50;99.90
10276;DHT22;5183;51.190;6.820;2023-02-13T13:23:27;14.60;1.00
10276;DHT22;5183;51.190;6.820;2023-02-13T13:26:05;14.70;99.90
10276;DHT22;5183;51.190;6.820;2023-02-13T13:28:38;14.70;1.00
10276;DHT22;5183;51.190;6.820;2023-02-13T13:31:07;14.80;99.90
10276;DHT22;5183;51.190;6.820;2023-02-13T13:33:35;14.90;99.90
10276;DHT22;5183;51.190;6.820;2023-02-13T13:36:10;15.10;1.00
10276;DHT22;5183;51.190;6.820;2023-02-13T13:38:47;15.20;1.00
10276;DHT22;5183;51.190;6.820;2023-02-13T13:41:22;15.20;1.00
10276;DHT22;5183;51.190;6.820;2023-02-13T13:44:04;15.40;99.90
10276;DHT22;5183;51.190;6.820;2023-02-13T13:46:43;15.40;99.90
10276;DHT22;5183;51.190;6.820;2023-02-13T13:49:21;15.40;1.00
10276;DHT22;5183;51.190;6.820;2023-02-13T13:51:50;15.50;95.80
10276;DHT22;5183;51.190;6.820;2023-02-13T13:54:33;15.50;1.00
10276;DHT22;5183;51.190;6.820;2023-02-13T13:57:09;15.60;1.00
10276;DHT22;5183;51.190;6.820;2023-02-13T14:03:19;15.80;99.90
10276;DHT22;5183;51.190;6.820;2023-02-13T14:06:02;16.00;99.90
10276;DHT22;5183;51.190;6.820;2023-02-13T14:09:06;16.00;1.00
10276;DHT22;5183;51.190;6.820;2023-02-13T14:11:54;16.00;99.90
10276;DHT22;5183;51.190;6.820;2023-02-13T14:14:50;16.10;1.00
10276;DHT22;5183;51.190;6.820;2023-02-13T14:17:51;16.20;99.90
10276;DHT22;5183;51.190;6.820;2023-02-13T14:20:33;16.30;99.90
10276;DHT22;5183;51.190;6.820;2023-02-13T14:23:17;16.30;99.90
10276;DHT22;5183;51.190;6.820;2023-02-13T14:25:46;16.30;99.90
10276;DHT22;5183;51.190;6.820;2023-02-13T14:28:22;16.40;99.90
10276;DHT22;5183;51.190;6.820;2023-02-13T14:30:51;16.40;99.90
10276;DHT22;5183;51.190;6.820;2023-02-13T14:33:24;16.50;99.90
10276;DHT22;5183;51.190;6.820;2023-02-13T14:36:00;16.60;99.90
10276;DHT22;5183;51.190;6.820;2023-02-13T14:38:28;16.60;99.90
10276;DHT22;5183;51.190;6.820;2023-02-13T14:40:56;16.60;99.90
10276;DHT22;5183;51.190;6.820;2023-02-13T14:43:38;16.70;99.90
10276;DHT22;5183;51.190;6.820;2023-02-13T14:46:22;16.70;99.90
10276;DHT22;5183;51.190;6.820;2023-02-13T14:48:54;16.60;99.90
10276;DHT22;5183;51.190;6.820;2023-02-13T14:51:25;16.60;99.90
10276;DHT22;5183;51.190;6.820;2023-02-13T14:53:58;16.60;99.90
10276;DHT22;5183;51.190;6.820;2023-02-13T14:56:27;16.60;99.90
10276;DHT22;5183;51.190;6.820;2023-02-13T14:59:00;16.60;99.90
10276;DHT22;5183;51.190;6.820;2023-02-13T15:01:31;16.60;99.90
10276;DHT22;5183;51.190;6.820;2023-02-13T15:04:04;16.60;99.90
10276;DHT22;5183;51.190;6.820;2023-02-13T15:06:35;16.60;99.90
10276;DHT22;5183;51.190;6.820;2023-02-13T15:09:11;16.70;99.90
10276;DHT22;5183;51.190;6.820;2023-02-13T15:11:42;16.70;99.90
10276;DHT22;5183;51.190;6.820;2023-02-13T15:14:20;16.60;99.90
10276;DHT22;5183;51.190;6.820;2023-02-13T15:16:52;16.70;99.90
10276;DHT22;5183;51.190;6.820;2023-02-13T15:19:20;16.70;99.90
10276;DHT22;5183;51.190;6.820;2023-02-13T15:21:52;16.80;99.90
10276;DHT22;5183;51.190;6.820;2023-02-13T15:24:20;16.70;99.90
10276;DHT22;5183;51.190;6.820;2023-02-13T15:27:06;16.70;41.80
10276;DHT22;5183;51.190;6.820;2023-02-13T15:29:34;16.70;16.80
10276;DHT22;5183;51.190;6.820;2023-02-13T15:32:16;16.60;32.10
10276;DHT22;5183;51.190;6.820;2023-02-13T15:34:46;16.60;27.00
10276;DHT22;5183;51.190;6.820;2023-02-13T15:37:20;16.50;1.00
10276;DHT22;5183;51.190;6.820;2023-02-13T15:39:47;16.50;99.90
10276;DHT22;5183;51.190;6.820;2023-02-13T15:42:14;16.40;99.90
10276;DHT22;5183;51.190;6.820;2023-02-13T15:44:44;16.30;99.90
10276;DHT22;5183;51.190;6.820;2023-02-13T15:47:17;16.30;99.90
10276;DHT22;5183;51.190;6.820;2023-02-13T15:49:48;16.30;99.90
10276;DHT22;5183;51.190;6.820;2023-02-13T15:52:19;16.20;99.90
10276;DHT22;5183;51.190;6.820;2023-02-13T15:54:49;16.10;99.90
10276;DHT22;5183;51.190;6.820;2023-02-13T15:57:16;15.90;99.90
10276;DHT22;5183;51.190;6.820;2023-02-13T15:59:44;15.80;99.90
10276;DHT22;5183;51.190;6.820;2023-02-13T16:02:16;15.70;99.90
10276;DHT22;5183;51.190;6.820;2023-02-13T16:04:44;15.50;99.90
10276;DHT22;5183;51.190;6.820;2023-02-13T16:07:14;15.30;1.00
10276;DHT22;5183;51.190;6.820;2023-02-13T16:09:41;15.20;1.00
10276;DHT22;5183;51.190;6.820;2023-02-13T16:12:18;14.90;1.00
10276;DHT22;5183;51.190;6.820;2023-02-13T16:14:49;14.70;1.00
10276;DHT22;5183;51.190;6.820;2023-02-13T16:17:24;14.50;1.00
10276;DHT22;5183;51.190;6.820;2023-02-13T16:19:55;14.30;99.90
10276;DHT22;5183;51.190;6.820;2023-02-13T16:22:28;14.20;99.90
10276;DHT22;5183;51.190;6.820;2023-02-13T16:25:03;14.20;99.90
10276;DHT22;5183;51.190;6.820;2023-02-13T16:27:33;14.00;99.90
10276;DHT22;5183;51.190;6.820;2023-02-13T16:30:03;13.80;99.90
10276;DHT22;5183;51.190;6.820;2023-02-13T16:32:34;13.70;1.00
10276;DHT22;5183;51.190;6.820;2023-02-13T16:35:17;13.50;1.00
10276;DHT22;5183;51.190;6.820;2023-02-13T16:37:49;13.40;1.00
10276;DHT22;5183;51.190;6.820;2023-02-13T16:40:38;13.20;1.00
10276;DHT22;5183;51.190;6.820;2023-02-13T16:43:33;13.10;99.90
10276;DHT22;5183;51.190;6.820;2023-02-13T16:46:18;13.00;99.90
10276;DHT22;5183;51.190;6.820;2023-02-13T16:48:57;12.90;99.90